createdAt,value
2017-11-26T00:00:58.307Z,20.70
2017-11-26T00:03:26.698Z,22.03
2017-11-26T00:05:55.170Z,21.60
2017-11-26T00:08:22.833Z,20.10
2017-11-26T00:10:50.498Z,21.50
2017-11-26T00:13:18.893Z,22.20
2017-11-26T00:15:47.264Z,22.83
2017-11-26T00:18:14.922Z,23.27
2017-11-26T00:20:43.290Z,25.07
2017-11-26T00:23:10.896Z,25.90
2017-11-26T00:25:38.527Z,25.83
2017-11-26T00:28:06.903Z,24.87
2017-11-26T00:30:35.390Z,25.83
2017-11-26T00:33:03.758Z,28.93
2017-11-26T00:35:31.378Z,25.23
2017-11-26T00:37:58.977Z,27.77
2017-11-26T00:40:26.609Z,27.27
2017-11-26T00:42:54.317Z,29.97
2017-11-26T00:45:21.979Z,29.17
2017-11-26T00:47:49.642Z,26.87
2017-11-26T00:50:17.263Z,26.40
2017-11-26T00:52:45.400Z,29.60
2017-11-26T00:55:13.858Z,30.37
2017-11-26T00:57:42.247Z,26.10
2017-11-26T01:00:10.635Z,26.63
2017-11-26T01:02:39.098Z,23.97
2017-11-26T01:05:06.767Z,26.93
2017-11-26T01:07:34.432Z,23.27
2017-11-26T01:10:02.911Z,25.80
2017-11-26T01:12:30.546Z,26.13
2017-11-26T01:14:58.239Z,24.57
2017-11-26T01:17:25.867Z,27.57
2017-11-26T01:19:53.458Z,26.43
2017-11-26T01:22:26.804Z,26.13
2017-11-26T01:24:54.411Z,23.63
2017-11-26T01:27:22.087Z,24.10
2017-11-26T01:29:50.454Z,26.37
2017-11-26T01:32:18.081Z,23.60
2017-11-26T01:34:45.682Z,20.60
2017-11-26T01:37:13.308Z,22.27
2017-11-26T01:39:40.973Z,22.80
2017-11-26T01:42:08.603Z,22.40
2017-11-26T01:44:36.245Z,22.03
2017-11-26T01:47:04.626Z,21.47
2017-11-26T01:49:32.993Z,21.27
2017-11-26T01:52:00.642Z,21.00
2017-11-26T01:54:28.254Z,22.40
2017-11-26T01:56:55.887Z,21.47
2017-11-26T01:59:24.375Z,20.67
2017-11-26T02:01:52.755Z,21.07
2017-11-26T02:04:21.137Z,20.17
2017-11-26T02:06:49.508Z,19.20
2017-11-26T02:09:17.127Z,20.70
2017-11-26T02:11:44.833Z,20.73
2017-11-26T02:14:12.452Z,21.07
2017-11-26T02:16:40.053Z,18.80
2017-11-26T02:19:07.781Z,21.47
2017-11-26T02:21:35.378Z,18.57
2017-11-26T02:24:03.006Z,20.07
2017-11-26T02:26:30.705Z,19.77
2017-11-26T02:28:58.343Z,20.37
2017-11-26T02:31:37.917Z,21.37
2017-11-26T02:37:05.579Z,21.20
2017-11-26T02:39:33.994Z,21.40
2017-11-26T02:42:02.455Z,20.83
2017-11-26T02:44:30.102Z,23.33
2017-11-26T02:46:58.514Z,18.60
2017-11-26T02:49:26.997Z,21.20
2017-11-26T02:51:54.643Z,20.62
2017-11-26T02:54:22.243Z,18.47
2017-11-26T02:56:49.861Z,19.87
2017-11-26T02:59:17.538Z,20.77
2017-11-26T03:01:46.023Z,20.37
2017-11-26T03:04:14.501Z,20.20
2017-11-26T03:06:42.227Z,19.40
2017-11-26T03:09:09.930Z,20.40
2017-11-26T03:11:37.581Z,19.00
2017-11-26T03:14:05.253Z,20.10
2017-11-26T03:16:32.875Z,20.87
2017-11-26T03:19:00.466Z,18.50
2017-11-26T03:21:28.146Z,18.20
2017-11-26T03:23:56.509Z,19.80
2017-11-26T03:26:24.868Z,19.80
2017-11-26T03:28:52.486Z,19.63
2017-11-26T03:31:20.848Z,18.63
2017-11-26T03:33:48.505Z,20.10
2017-11-26T03:36:16.107Z,17.00
2017-11-26T03:38:43.720Z,18.80
2017-11-26T03:41:11.305Z,17.13
2017-11-26T03:43:39.681Z,19.23
2017-11-26T03:46:08.158Z,19.27
2017-11-26T03:48:35.776Z,19.07
2017-11-26T03:51:03.376Z,17.17
2017-11-26T03:53:32.497Z,19.57
2017-11-26T03:56:00.946Z,20.27
2017-11-26T03:58:28.620Z,18.43
2017-11-26T04:00:56.205Z,20.87
2017-11-26T04:03:24.597Z,19.30
2017-11-26T04:05:52.225Z,21.00
2017-11-26T04:08:19.822Z,19.87
2017-11-26T04:10:47.556Z,18.30
2017-11-26T04:13:16.542Z,20.70
2017-11-26T04:15:44.214Z,19.40
2017-11-26T04:18:11.900Z,20.67
2017-11-26T04:20:39.540Z,22.00
2017-11-26T04:23:07.904Z,21.50
2017-11-26T04:25:35.578Z,21.17
2017-11-26T04:28:03.241Z,21.70
2017-11-26T04:30:30.870Z,18.67
2017-11-26T04:32:58.459Z,16.73
2017-11-26T04:35:26.090Z,17.87
2017-11-26T04:37:53.698Z,18.43
2017-11-26T04:40:21.353Z,17.90
2017-11-26T04:42:49.018Z,20.60
2017-11-26T04:45:16.632Z,22.27
2017-11-26T04:47:44.226Z,18.63
2017-11-26T04:50:11.847Z,19.87
2017-11-26T04:52:39.438Z,20.30
2017-11-26T04:55:07.129Z,19.10
2017-11-26T04:57:34.797Z,17.37
2017-11-26T05:00:02.458Z,18.47
2017-11-26T05:02:30.127Z,18.33
2017-11-26T05:04:58.601Z,19.93
2017-11-26T05:07:27.081Z,18.03
2017-11-26T05:09:54.673Z,19.57
2017-11-26T05:12:22.289Z,19.37
2017-11-26T05:14:49.895Z,20.30
2017-11-26T05:17:18.275Z,19.10
2017-11-26T05:19:45.872Z,18.87
2017-11-26T05:22:13.528Z,20.87
2017-11-26T05:24:41.137Z,18.57
2017-11-26T05:27:08.796Z,19.57
2017-11-26T05:29:36.460Z,18.63
2017-11-26T05:32:04.069Z,18.33
2017-11-26T05:34:31.666Z,19.83
2017-11-26T05:36:59.281Z,18.10
2017-11-26T05:39:26.917Z,18.87
2017-11-26T05:41:54.530Z,16.97
2017-11-26T05:44:22.132Z,18.07
2017-11-26T05:46:49.805Z,17.37
2017-11-26T05:49:17.462Z,16.20
2017-11-26T05:51:45.054Z,17.03
2017-11-26T05:54:12.695Z,17.43
2017-11-26T05:56:41.061Z,17.80
2017-11-26T05:59:08.710Z,13.70
2017-11-26T06:01:36.394Z,15.90
2017-11-26T06:04:04.018Z,16.70
2017-11-26T06:06:31.608Z,14.70
2017-11-26T06:08:59.220Z,15.17
2017-11-26T06:11:26.809Z,12.37
2017-11-26T06:13:54.510Z,14.10
2017-11-26T06:16:22.101Z,11.93
2017-11-26T06:18:49.719Z,14.90
2017-11-26T06:21:17.318Z,13.33
2017-11-26T06:23:44.964Z,13.20
2017-11-26T06:26:13.338Z,14.93
2017-11-26T06:28:41.752Z,14.53
2017-11-26T06:31:09.384Z,13.37
2017-11-26T06:33:37.741Z,14.03
2017-11-26T06:36:05.359Z,12.80
2017-11-26T06:38:32.959Z,10.90
2017-11-26T06:41:00.628Z,14.17
2017-11-26T06:43:28.205Z,15.03
2017-11-26T06:45:55.830Z,13.57
2017-11-26T06:48:23.421Z,13.50
2017-11-26T06:50:51.090Z,13.70
2017-11-26T06:53:18.688Z,14.07
2017-11-26T06:55:46.935Z,13.77
2017-11-26T06:58:14.527Z,11.87
2017-11-26T07:00:42.149Z,13.53
2017-11-26T07:03:09.821Z,14.03
2017-11-26T07:05:37.487Z,16.13
2017-11-26T07:08:05.861Z,13.10
2017-11-26T07:10:33.479Z,12.60
2017-11-26T07:13:01.065Z,14.50
2017-11-26T07:15:28.702Z,12.90
2017-11-26T07:17:56.294Z,13.57
2017-11-26T07:20:23.885Z,9.50
2017-11-26T07:22:52.352Z,13.40
2017-11-26T07:25:19.946Z,13.00
2017-11-26T07:27:47.578Z,11.53
2017-11-26T07:30:15.250Z,12.90
2017-11-26T07:32:43.637Z,13.20
2017-11-26T07:35:12.106Z,12.30
2017-11-26T07:37:40.590Z,12.00
2017-11-26T07:40:08.245Z,11.37
2017-11-26T07:42:35.917Z,12.10
2017-11-26T07:45:04.286Z,12.47
2017-11-26T07:47:31.934Z,12.00
2017-11-26T07:49:59.617Z,10.30
2017-11-26T07:52:27.254Z,11.30
2017-11-26T07:54:54.846Z,12.20
2017-11-26T07:57:22.442Z,10.53
2017-11-26T07:59:50.057Z,10.90
2017-11-26T08:02:17.649Z,11.87
2017-11-26T08:04:46.037Z,10.40
2017-11-26T08:07:13.677Z,11.83
2017-11-26T08:09:42.157Z,12.27
2017-11-26T08:12:09.753Z,13.30
2017-11-26T08:14:37.478Z,10.77
2017-11-26T08:17:05.149Z,10.30
2017-11-26T08:19:33.537Z,10.40
2017-11-26T08:22:01.899Z,13.90
2017-11-26T08:24:30.289Z,10.07
2017-11-26T08:26:58.649Z,9.93
2017-11-26T08:29:26.275Z,10.00
2017-11-26T08:31:53.874Z,11.37
2017-11-26T08:34:21.554Z,9.23
2017-11-26T08:36:50.038Z,10.50
2017-11-26T08:39:17.678Z,9.80
2017-11-26T08:41:45.319Z,9.83
2017-11-26T08:44:12.935Z,11.50
2017-11-26T08:46:41.323Z,10.97
2017-11-26T08:49:09.686Z,11.40
2017-11-26T08:51:38.077Z,11.30
2017-11-26T08:54:06.440Z,12.97
2017-11-26T08:56:34.835Z,11.10
2017-11-26T08:59:03.194Z,11.07
2017-11-26T09:01:30.811Z,9.40
2017-11-26T09:03:58.433Z,12.25
2017-11-26T09:06:27.294Z,13.17
2017-11-26T09:08:57.535Z,10.30
2017-11-26T09:11:25.148Z,9.67
2017-11-26T09:13:52.747Z,10.90
2017-11-26T09:16:20.367Z,7.13
2017-11-26T09:18:47.970Z,9.80
2017-11-26T09:21:15.590Z,9.63
2017-11-26T09:23:43.215Z,11.40
2017-11-26T09:26:11.691Z,10.77
2017-11-26T09:28:39.353Z,10.77
2017-11-26T09:31:07.017Z,11.87
2017-11-26T09:33:34.623Z,10.37
2017-11-26T09:36:02.245Z,11.37
2017-11-26T09:38:29.843Z,10.77
2017-11-26T09:40:57.570Z,10.70
2017-11-26T09:43:25.169Z,10.47
2017-11-26T09:45:52.794Z,10.63
2017-11-26T09:48:20.420Z,11.90
2017-11-26T09:50:48.018Z,15.23
2017-11-26T09:53:16.563Z,9.10
2017-11-26T09:55:44.162Z,10.60
2017-11-26T09:58:11.830Z,11.20
2017-11-26T10:00:40.209Z,11.27
2017-11-26T10:03:08.598Z,11.53
2017-11-26T10:05:37.091Z,14.37
2017-11-26T10:08:05.559Z,12.43
2017-11-26T10:10:33.921Z,13.10
2017-11-26T10:13:01.594Z,13.20
2017-11-26T10:15:29.263Z,13.37
2017-11-26T10:17:57.656Z,10.50
2017-11-26T10:20:26.027Z,11.17
2017-11-26T10:22:54.422Z,13.20
2017-11-26T10:25:22.046Z,11.03
2017-11-26T10:27:49.721Z,12.73
2017-11-26T10:30:17.333Z,13.93
2017-11-26T10:32:44.953Z,10.37
2017-11-26T10:35:14.074Z,11.53
2017-11-26T10:37:41.667Z,11.83
2017-11-26T10:40:09.376Z,12.27
2017-11-26T10:42:37.780Z,13.40
2017-11-26T10:45:05.421Z,12.30
2017-11-26T10:47:33.785Z,13.87
2017-11-26T10:50:01.412Z,12.27
2017-11-26T10:52:29.138Z,13.53
2017-11-26T10:54:57.521Z,12.00
2017-11-26T10:57:25.981Z,13.80
2017-11-26T10:59:53.617Z,12.03
2017-11-26T11:02:21.214Z,11.37
2017-11-26T11:04:49.689Z,13.70
2017-11-26T11:07:17.301Z,12.40
2017-11-26T11:09:44.924Z,13.20
2017-11-26T11:12:13.393Z,13.63
2017-11-26T11:14:40.989Z,13.83
2017-11-26T11:17:08.615Z,14.53
2017-11-26T11:19:36.213Z,14.63
2017-11-26T11:22:03.827Z,13.37
2017-11-26T11:24:31.421Z,13.30
2017-11-26T11:26:59.829Z,13.47
2017-11-26T11:29:27.413Z,13.37
2017-11-26T11:31:55.030Z,11.50
2017-11-26T11:34:23.389Z,12.23
2017-11-26T11:36:51.050Z,13.83
2017-11-26T11:39:18.650Z,13.10
2017-11-26T11:41:46.250Z,13.20
2017-11-26T11:44:13.946Z,14.27
2017-11-26T11:46:42.421Z,13.70
2017-11-26T11:49:10.909Z,12.87
2017-11-26T11:51:39.275Z,13.10
2017-11-26T11:54:06.903Z,12.57
2017-11-26T11:56:34.497Z,13.20
2017-11-26T11:59:02.882Z,12.97
2017-11-26T12:01:31.237Z,12.10
2017-11-26T12:03:58.873Z,14.50
2017-11-26T12:06:26.483Z,14.30
2017-11-26T12:08:54.103Z,13.40
2017-11-26T12:11:21.710Z,10.63
2017-11-26T12:13:49.386Z,11.27
2017-11-26T12:16:17.044Z,12.63
2017-11-26T12:18:46.145Z,12.20
2017-11-26T12:21:14.539Z,10.87
2017-11-26T12:23:43.011Z,13.70
2017-11-26T12:26:11.406Z,8.60
2017-11-26T12:28:39.870Z,11.43
2017-11-26T12:31:08.259Z,11.00
2017-11-26T12:33:36.618Z,9.87
2017-11-26T12:36:04.997Z,8.87
2017-11-26T12:38:32.582Z,8.97
2017-11-26T12:41:00.966Z,9.40
2017-11-26T12:43:29.326Z,10.00
2017-11-26T12:45:56.941Z,8.97
2017-11-26T12:48:24.538Z,8.97
2017-11-26T12:50:52.218Z,7.80
2017-11-26T12:53:20.587Z,7.90
2017-11-26T12:55:48.262Z,9.67
2017-11-26T12:58:16.625Z,8.50
2017-11-26T13:00:44.234Z,8.70
2017-11-26T13:03:11.848Z,8.43
2017-11-26T13:05:39.445Z,8.50
2017-11-26T13:08:07.830Z,9.63
2017-11-26T13:10:35.475Z,8.63
2017-11-26T13:13:03.945Z,9.87
2017-11-26T13:15:31.534Z,9.83
2017-11-26T13:17:59.909Z,8.20
2017-11-26T13:20:28.277Z,7.50
2017-11-26T13:22:56.658Z,6.07
2017-11-26T13:25:25.028Z,7.57
2017-11-26T13:27:54.150Z,8.30
2017-11-26T13:30:21.798Z,7.53
2017-11-26T13:32:50.273Z,7.20
2017-11-26T13:35:18.631Z,7.40
2017-11-26T13:37:46.242Z,9.00
2017-11-26T13:40:13.872Z,9.10
2017-11-26T13:42:41.538Z,7.90
2017-11-26T13:45:10.635Z,9.00
2017-11-26T13:47:39.058Z,6.00
2017-11-26T13:50:06.657Z,7.90
2017-11-26T13:52:34.253Z,8.07
2017-11-26T13:55:02.650Z,8.47
2017-11-26T13:57:30.294Z,7.57
2017-11-26T13:59:58.766Z,9.20
2017-11-26T14:02:27.966Z,7.60
2017-11-26T14:04:56.359Z,7.70
2017-11-26T14:07:24.731Z,6.20
2017-11-26T14:09:53.205Z,8.83
2017-11-26T14:12:21.562Z,5.57
2017-11-26T14:14:49.182Z,7.30
2017-11-26T14:17:16.774Z,8.63
2017-11-26T14:19:44.474Z,7.30
2017-11-26T14:22:12.861Z,6.47
2017-11-26T14:24:41.333Z,7.00
2017-11-26T14:27:08.959Z,5.63
2017-11-26T14:29:36.563Z,6.20
2017-11-26T14:32:05.042Z,7.90
2017-11-26T14:34:34.133Z,6.00
2017-11-26T14:37:01.802Z,7.33
2017-11-26T14:39:29.394Z,6.60
2017-11-26T14:41:57.027Z,7.00
2017-11-26T14:44:26.125Z,6.90
2017-11-26T14:46:54.502Z,6.53
2017-11-26T14:49:22.105Z,8.90
2017-11-26T14:51:49.830Z,7.00
2017-11-26T14:54:18.929Z,7.00
2017-11-26T14:56:47.297Z,6.70
2017-11-26T14:59:14.971Z,7.40
2017-11-26T15:01:43.455Z,7.10
2017-11-26T15:04:11.045Z,6.47
2017-11-26T15:06:38.677Z,7.43
2017-11-26T15:09:07.775Z,6.80
2017-11-26T15:11:36.192Z,7.50
2017-11-26T15:14:03.787Z,7.90
2017-11-26T15:16:31.372Z,6.47
2017-11-26T15:18:59.042Z,6.93
2017-11-26T15:21:27.402Z,6.80
2017-11-26T15:23:55.027Z,7.10
2017-11-26T15:26:22.638Z,6.13
2017-11-26T15:28:50.305Z,5.70
2017-11-26T15:31:17.895Z,6.37
2017-11-26T15:33:45.518Z,6.80
2017-11-26T15:36:13.114Z,7.40
2017-11-26T15:38:41.500Z,6.23
2017-11-26T15:41:09.095Z,6.67
2017-11-26T15:43:36.749Z,6.80
2017-11-26T15:46:04.362Z,5.33
2017-11-26T15:48:32.718Z,6.23
2017-11-26T15:51:00.329Z,6.20
2017-11-26T15:53:27.924Z,7.63
2017-11-26T15:55:55.538Z,7.53
2017-11-26T15:58:23.910Z,6.90
2017-11-26T16:00:52.299Z,7.40
2017-11-26T16:03:20.774Z,6.50
2017-11-26T16:05:49.251Z,5.90
2017-11-26T16:08:17.631Z,7.40
2017-11-26T16:10:46.008Z,7.97
2017-11-26T16:13:13.593Z,6.70
2017-11-26T16:15:42.054Z,7.53
2017-11-26T16:18:09.714Z,7.30
2017-11-26T16:20:37.328Z,7.03
2017-11-26T16:23:04.916Z,7.93
2017-11-26T16:25:32.601Z,9.13
2017-11-26T16:28:00.270Z,7.10
2017-11-26T16:30:28.628Z,6.73
2017-11-26T16:32:56.310Z,6.70
2017-11-26T16:35:23.969Z,8.00
2017-11-26T16:37:51.646Z,7.43
2017-11-26T16:40:20.013Z,7.20
2017-11-26T16:42:47.630Z,6.23
2017-11-26T16:45:15.217Z,8.77
2017-11-26T16:47:42.843Z,7.93
2017-11-26T16:50:10.466Z,9.87
2017-11-26T16:52:38.139Z,8.77
2017-11-26T16:55:06.514Z,6.90
2017-11-26T16:57:34.944Z,9.20
2017-11-26T17:00:02.549Z,7.30
2017-11-26T17:02:30.156Z,8.27
2017-11-26T17:04:57.780Z,7.70
2017-11-26T17:07:26.133Z,7.70
2017-11-26T17:09:53.753Z,8.70
2017-11-26T17:12:21.345Z,6.20
2017-11-26T17:14:49.041Z,7.40
2017-11-26T17:17:16.716Z,8.93
2017-11-26T17:19:45.092Z,7.87
2017-11-26T17:22:12.748Z,7.60
2017-11-26T17:24:40.413Z,7.43
2017-11-26T17:27:08.010Z,7.57
2017-11-26T17:29:35.625Z,8.90
2017-11-26T17:32:03.226Z,7.53
2017-11-26T17:34:30.843Z,7.87
2017-11-26T17:36:58.442Z,8.73
2017-11-26T17:39:26.897Z,7.63
2017-11-26T17:41:54.566Z,7.70
2017-11-26T17:44:23.661Z,7.57
2017-11-26T17:46:51.286Z,6.60
2017-11-26T17:49:18.989Z,7.10
2017-11-26T17:51:46.605Z,8.20
2017-11-26T17:54:14.217Z,6.77
2017-11-26T17:56:43.342Z,8.63
2017-11-26T17:59:10.978Z,8.23
2017-11-26T18:01:39.360Z,9.27
2017-11-26T18:04:07.737Z,7.90
2017-11-26T18:06:36.215Z,8.97
2017-11-26T18:09:03.889Z,8.30
2017-11-26T18:11:32.363Z,7.10
2017-11-26T18:14:00.716Z,8.70
2017-11-26T18:16:28.406Z,9.50
2017-11-26T18:18:56.776Z,9.80
2017-11-26T18:21:24.365Z,9.60
2017-11-26T18:23:52.826Z,9.87
2017-11-26T18:26:21.182Z,8.80
2017-11-26T18:28:48.869Z,9.57
2017-11-26T18:31:16.525Z,8.40
2017-11-26T18:33:44.133Z,8.77
2017-11-26T18:36:11.727Z,8.00
2017-11-26T18:38:39.368Z,9.50
2017-11-26T18:41:06.958Z,9.57
2017-11-26T18:43:34.582Z,7.30
2017-11-26T18:46:02.218Z,8.00
2017-11-26T18:48:30.589Z,9.13
2017-11-26T18:50:58.953Z,8.47
2017-11-26T18:53:26.608Z,7.60
2017-11-26T18:55:54.205Z,10.23
2017-11-26T18:58:22.567Z,8.50
2017-11-26T19:00:51.702Z,8.70
2017-11-26T19:03:19.746Z,9.20
2017-11-26T19:05:48.120Z,9.90
2017-11-26T19:08:15.713Z,10.73
2017-11-26T19:10:43.334Z,8.97
2017-11-26T19:13:11.724Z,6.00
2017-11-26T19:15:40.922Z,7.70
2017-11-26T19:18:08.585Z,8.27
2017-11-26T19:20:37.337Z,8.77
2017-11-26T19:23:04.954Z,9.33
2017-11-26T19:25:33.330Z,8.50
2017-11-26T19:28:01.696Z,8.63
2017-11-26T19:30:31.027Z,7.57
2017-11-26T19:32:59.474Z,7.70
2017-11-26T19:35:27.141Z,7.67
2017-11-26T19:37:54.750Z,7.90
2017-11-26T19:40:22.365Z,7.53
2017-11-26T19:42:50.750Z,7.83
2017-11-26T19:45:19.149Z,7.47
2017-11-26T19:47:47.503Z,7.00
2017-11-26T19:50:15.107Z,7.60
2017-11-26T19:52:42.839Z,7.27
2017-11-26T19:55:11.202Z,6.50
2017-11-26T19:57:38.805Z,6.67
2017-11-26T20:00:06.395Z,6.07
2017-11-26T20:02:34.006Z,6.20
2017-11-26T20:05:02.374Z,5.90
2017-11-26T20:07:30.754Z,6.23
2017-11-26T20:09:59.966Z,6.20
2017-11-26T20:12:28.348Z,6.87
2017-11-26T20:14:56.701Z,5.90
2017-11-26T20:17:24.320Z,6.20
2017-11-26T20:19:51.920Z,5.83
2017-11-26T20:22:19.533Z,4.57
2017-11-26T20:24:47.126Z,5.53
2017-11-26T20:27:14.717Z,5.73
2017-11-26T20:29:42.389Z,5.43
2017-11-26T20:32:10.770Z,5.00
2017-11-26T20:34:39.218Z,5.23
2017-11-26T20:37:06.811Z,5.60
2017-11-26T20:39:34.470Z,5.20
2017-11-26T20:42:02.062Z,5.20
2017-11-26T20:44:29.682Z,4.57
2017-11-26T20:46:57.286Z,5.73
2017-11-26T20:49:25.649Z,4.77
2017-11-26T20:51:54.017Z,4.77
2017-11-26T20:54:21.629Z,5.10
2017-11-26T20:56:49.209Z,5.20
2017-11-26T20:59:16.907Z,5.53
2017-11-26T21:01:45.291Z,4.40
2017-11-26T21:04:14.385Z,5.57
2017-11-26T21:06:43.506Z,4.10
2017-11-26T21:09:11.862Z,4.53
2017-11-26T21:11:40.244Z,4.20
2017-11-26T21:14:09.350Z,4.63
2017-11-26T21:16:37.817Z,4.90
2017-11-26T21:19:06.202Z,4.90
2017-11-26T21:21:34.578Z,4.23
2017-11-26T21:24:02.170Z,3.50
2017-11-26T21:26:29.783Z,3.60
2017-11-26T21:28:57.386Z,3.83
2017-11-26T21:31:25.757Z,4.10
2017-11-26T21:33:54.224Z,3.37
2017-11-26T21:36:22.602Z,3.63
2017-11-26T21:38:50.955Z,3.20
2017-11-26T21:41:18.649Z,3.67
2017-11-26T21:43:46.309Z,2.97
2017-11-26T21:46:13.894Z,3.60
2017-11-26T21:48:42.354Z,3.43
2017-11-26T21:51:10.026Z,3.53
2017-11-26T21:53:38.411Z,3.23
2017-11-26T21:56:06.769Z,3.43
2017-11-26T21:58:34.379Z,2.97
2017-11-26T22:01:02.065Z,3.33
2017-11-26T22:03:29.771Z,3.27
2017-11-26T22:05:58.878Z,3.50
2017-11-26T22:08:27.350Z,3.93
2017-11-26T22:10:55.734Z,3.50
2017-11-26T22:13:24.938Z,3.10
2017-11-26T22:15:53.298Z,3.77
2017-11-26T22:18:20.971Z,3.37
2017-11-26T22:20:49.334Z,3.27
2017-11-26T22:23:17.015Z,3.30
2017-11-26T22:25:45.494Z,2.87
2017-11-26T22:28:13.878Z,3.00
2017-11-26T22:30:42.362Z,3.10
2017-11-26T22:33:10.715Z,2.73
2017-11-26T22:35:38.334Z,3.43
2017-11-26T22:38:05.970Z,2.80
2017-11-26T22:40:34.345Z,3.50
2017-11-26T22:43:02.721Z,3.50
2017-11-26T22:45:31.924Z,3.07
2017-11-26T22:48:00.283Z,2.80
2017-11-26T22:50:27.898Z,2.00
2017-11-26T22:52:55.491Z,3.10
2017-11-26T22:55:23.109Z,2.90
2017-11-26T22:57:51.466Z,2.97
2017-11-26T23:00:19.874Z,3.37
2017-11-26T23:02:49.150Z,3.33
2017-11-26T23:05:17.510Z,3.60
2017-11-26T23:07:45.189Z,3.83
2017-11-26T23:10:13.569Z,3.30
2017-11-26T23:12:42.697Z,3.80
2017-11-26T23:15:11.066Z,3.57
2017-11-26T23:17:38.689Z,3.30
2017-11-26T23:20:06.373Z,3.50
2017-11-26T23:22:34.746Z,3.70
2017-11-26T23:25:02.346Z,3.47
2017-11-26T23:27:29.978Z,3.83
2017-11-26T23:29:57.573Z,3.40
2017-11-26T23:32:25.177Z,3.00
2017-11-26T23:34:52.770Z,3.53
2017-11-26T23:37:21.238Z,3.30
2017-11-26T23:39:48.825Z,3.40
2017-11-26T23:42:17.220Z,3.07
2017-11-26T23:44:44.845Z,3.17
2017-11-26T23:47:14.024Z,3.70
2017-11-26T23:49:41.641Z,3.50
2017-11-26T23:52:09.275Z,3.87
2017-11-26T23:54:38.389Z,3.07
2017-11-26T23:57:06.737Z,3.87
2017-11-26T23:59:34.338Z,3.03
